createdAt,value
2023-02-05T00:46:58.801Z,38.72
2023-02-05T00:49:26.573Z,38.49
2023-02-05T00:51:54.220Z,38.55
2023-02-05T00:54:21.926Z,38.74
2023-02-05T00:56:49.910Z,38.62
2023-02-05T00:59:17.687Z,38.81
2023-02-05T01:45:50.563Z,38.26
2023-02-05T01:48:19.198Z,38.55
2023-02-05T01:50:47.399Z,38.54
2023-02-05T01:53:16.573Z,38.35
2023-02-05T01:55:46.434Z,38.37
2023-02-05T01:58:14.354Z,38.31
2023-02-05T02:47:32.581Z,38.30
2023-02-05T02:50:01.883Z,38.09
2023-02-05T02:52:30.793Z,38.04
2023-02-05T02:55:00.565Z,37.88
2023-02-05T02:57:28.776Z,37.92
2023-02-05T02:59:57.617Z,37.97
2023-02-05T03:47:49.152Z,37.81
2023-02-05T03:50:18.718Z,37.84
2023-02-05T03:52:52.875Z,37.79
2023-02-05T03:55:21.402Z,37.80
2023-02-05T03:57:51.745Z,37.65
2023-02-05T04:47:09.829Z,38.09
2023-02-05T04:49:37.573Z,37.77
2023-02-05T04:52:05.220Z,37.89
2023-02-05T04:54:32.946Z,37.82
2023-02-05T04:57:00.716Z,37.96
2023-02-05T04:59:29.945Z,37.98
2023-02-05T05:45:58.973Z,37.98
2023-02-05T05:48:26.632Z,38.04
2023-02-05T05:50:54.574Z,37.80
2023-02-05T05:53:22.483Z,37.98
2023-02-05T05:55:50.267Z,37.86
2023-02-05T05:58:17.881Z,37.88
2023-02-05T06:00:45.538Z,37.78
2023-02-05T06:03:14.518Z,37.92
2023-02-05T06:05:42.104Z,37.87
2023-02-05T06:08:09.670Z,37.57
2023-02-05T06:10:37.536Z,37.80
2023-02-05T06:13:05.373Z,37.68
2023-02-05T06:15:33.342Z,37.67
2023-02-05T06:18:01.518Z,37.75
2023-02-05T06:20:30.424Z,37.73
2023-02-05T06:22:58.127Z,37.81
2023-02-05T06:25:25.750Z,37.83
2023-02-05T06:27:53.384Z,37.83
2023-02-05T06:30:21.029Z,37.80
2023-02-05T06:32:48.642Z,37.92
2023-02-05T06:35:16.497Z,37.83
2023-02-05T06:37:47.361Z,37.81
2023-02-05T06:40:17.845Z,37.77
2023-02-05T06:42:45.650Z,37.75
2023-02-05T06:45:13.369Z,37.73
2023-02-05T06:47:40.962Z,37.59
2023-02-05T06:50:08.715Z,37.76
2023-02-05T06:52:36.301Z,37.75
2023-02-05T06:55:05.765Z,37.56
2023-02-05T06:57:33.480Z,37.69
2023-02-05T07:00:01.140Z,37.75
2023-02-05T07:02:28.865Z,37.68
2023-02-05T07:04:56.594Z,37.75
2023-02-05T07:07:24.176Z,37.65
2023-02-05T07:09:52.008Z,37.80
2023-02-05T07:12:21.083Z,37.65
2023-02-05T07:14:48.815Z,37.75
2023-02-05T07:17:16.466Z,37.73
2023-02-05T07:19:44.064Z,37.59
2023-02-05T07:22:13.935Z,37.61
2023-02-05T07:24:41.545Z,37.74
2023-02-05T07:27:09.097Z,37.71
2023-02-05T07:29:38.092Z,37.56
2023-02-05T07:32:06.221Z,37.72
2023-02-05T07:34:33.946Z,37.60
2023-02-05T07:37:01.536Z,37.69
2023-02-05T07:39:29.215Z,37.75
2023-02-05T07:41:56.790Z,37.54
2023-02-05T07:44:35.865Z,37.52
2023-02-05T07:47:04.836Z,37.63
2023-02-05T07:49:32.467Z,37.64
2023-02-05T07:52:00.108Z,37.52
2023-02-05T07:54:27.674Z,37.56
2023-02-05T07:56:55.687Z,37.51
2023-02-05T07:59:23.307Z,37.58
2023-02-05T08:01:50.896Z,37.54
2023-02-05T08:04:19.841Z,37.50
2023-02-05T08:06:47.468Z,37.48
2023-02-05T08:09:16.724Z,37.33
2023-02-05T08:11:44.319Z,37.45
2023-02-05T08:14:11.906Z,37.60
2023-02-05T08:16:39.553Z,37.45
2023-02-05T08:19:07.790Z,37.44
2023-02-05T08:21:36.795Z,37.33
2023-02-05T08:24:04.533Z,37.39
2023-02-05T08:26:32.391Z,37.45
2023-02-05T08:29:00.275Z,37.40
2023-02-05T08:31:27.857Z,37.26
2023-02-05T08:33:56.530Z,37.45
2023-02-05T08:36:24.205Z,37.48
2023-02-05T08:38:53.172Z,37.39
2023-02-05T08:41:20.761Z,37.42
2023-02-05T08:43:48.839Z,37.49
2023-02-05T08:46:17.642Z,37.48
2023-02-05T08:48:45.496Z,37.36
2023-02-05T08:51:13.210Z,37.44
2023-02-05T08:53:40.887Z,37.45
2023-02-05T08:56:15.863Z,35.28
2023-02-05T08:58:43.588Z,35.54
2023-02-05T09:01:11.613Z,36.10
2023-02-05T09:03:39.379Z,36.45
2023-02-05T09:06:07.580Z,36.45
2023-02-05T09:08:35.304Z,36.64
2023-02-05T09:11:03.041Z,36.78
2023-02-05T09:13:32.057Z,36.96
2023-02-05T09:16:01.053Z,37.10
2023-02-05T09:18:28.707Z,37.16
2023-02-05T09:20:56.887Z,37.23
2023-02-05T09:23:24.780Z,37.08
2023-02-05T09:25:52.462Z,37.25
2023-02-05T09:28:20.188Z,37.35
2023-02-05T09:30:48.067Z,37.12
2023-02-05T09:33:17.243Z,37.12
2023-02-05T09:35:44.934Z,37.37
2023-02-05T09:38:13.806Z,37.27
2023-02-05T09:40:41.897Z,37.17
2023-02-05T09:43:15.237Z,37.21
2023-02-05T09:45:47.036Z,37.31
2023-02-05T09:48:28.704Z,37.35
2023-02-05T09:50:57.955Z,37.47
2023-02-05T09:53:25.714Z,37.27
2023-02-05T09:55:53.609Z,37.19
2023-02-05T09:58:22.734Z,37.35
2023-02-05T10:00:50.788Z,37.45
2023-02-05T10:03:20.670Z,37.19
2023-02-05T10:05:53.206Z,37.42
2023-02-05T10:08:22.251Z,37.46
2023-02-05T10:10:49.967Z,37.21
2023-02-05T10:13:27.008Z,37.31
2023-02-05T10:15:58.888Z,37.30
2023-02-05T10:18:28.179Z,37.27
2023-02-05T10:20:59.616Z,37.31
2023-02-05T10:23:30.424Z,37.29
2023-02-05T10:26:05.078Z,37.27
2023-02-05T10:28:36.597Z,37.35
2023-02-05T10:31:05.428Z,37.51
2023-02-05T10:33:43.620Z,37.46
2023-02-05T10:36:12.670Z,37.41
2023-02-05T10:38:41.446Z,37.39
2023-02-05T10:41:13.467Z,37.28
2023-02-05T10:43:41.800Z,37.37
2023-02-05T10:46:11.700Z,37.36
2023-02-05T10:48:41.498Z,37.29
2023-02-05T10:51:09.752Z,37.11
2023-02-05T10:53:39.235Z,37.05
2023-02-05T10:56:07.262Z,37.18
2023-02-05T10:58:39.257Z,36.93
2023-02-05T11:01:07.008Z,36.97
2023-02-05T11:03:34.813Z,36.92
2023-02-05T11:06:02.924Z,37.12
2023-02-05T11:08:34.740Z,37.07
2023-02-05T11:11:04.081Z,37.24
2023-02-05T11:13:31.857Z,36.96
2023-02-05T11:16:00.168Z,37.27
2023-02-05T11:18:28.113Z,37.24
2023-02-05T11:20:56.071Z,37.26
2023-02-05T11:23:24.842Z,37.30
2023-02-05T11:25:53.166Z,37.21
2023-02-05T11:28:24.631Z,37.00
2023-02-05T11:30:53.011Z,37.08
2023-02-05T11:33:38.775Z,36.96
2023-02-05T11:36:06.790Z,37.04
2023-02-05T11:38:35.484Z,36.86
2023-02-05T11:41:04.316Z,36.89
2023-02-05T11:43:33.665Z,36.96
2023-02-05T11:46:02.146Z,36.91
2023-02-05T11:48:32.692Z,37.03
2023-02-05T11:51:00.316Z,36.96
2023-02-05T11:53:27.950Z,36.94
2023-02-05T11:55:56.403Z,36.86
2023-02-05T11:58:35.850Z,36.72
2023-02-05T12:01:06.943Z,36.84
2023-02-05T12:03:34.925Z,36.87
2023-02-05T12:06:08.996Z,36.69
2023-02-05T12:08:39.700Z,36.86
2023-02-05T12:11:24.594Z,36.69
2023-02-05T12:13:56.916Z,36.67
2023-02-05T12:16:33.985Z,36.57
2023-02-05T12:19:02.900Z,36.60
2023-02-05T12:21:31.654Z,36.72
2023-02-05T12:24:06.328Z,36.88
2023-02-05T12:26:35.066Z,36.79
2023-02-05T12:29:06.892Z,36.86
2023-02-05T12:31:40.420Z,37.25
2023-02-05T12:34:14.930Z,37.04
2023-02-05T12:36:46.564Z,36.83
2023-02-05T12:39:17.999Z,37.07
2023-02-05T12:41:47.110Z,36.95
2023-02-05T12:44:19.763Z,37.18
2023-02-05T12:46:51.778Z,37.15
2023-02-05T12:49:22.060Z,36.83
2023-02-05T12:51:56.086Z,36.74
2023-02-05T12:54:27.362Z,36.97
2023-02-05T12:56:56.581Z,37.02
2023-02-05T12:59:26.892Z,37.06
2023-02-05T13:01:56.839Z,37.21
2023-02-05T13:04:25.757Z,37.13
2023-02-05T13:06:54.704Z,37.28
2023-02-05T13:09:23.858Z,37.24
2023-02-05T13:11:53.095Z,37.20
2023-02-05T13:14:21.646Z,37.05
2023-02-05T13:16:53.839Z,37.19
2023-02-05T13:19:32.266Z,37.20
2023-02-05T13:22:18.432Z,37.08
2023-02-05T13:25:05.024Z,37.21
2023-02-05T13:27:52.160Z,37.12
2023-02-05T13:30:28.298Z,37.25
2023-02-05T13:33:04.732Z,37.37
2023-02-05T13:35:35.314Z,37.25
2023-02-05T13:38:10.353Z,37.20
2023-02-05T13:40:42.076Z,37.26
2023-02-05T13:43:27.384Z,37.47
2023-02-05T13:46:19.561Z,37.38
2023-02-05T13:49:08.123Z,37.28
2023-02-05T13:51:42.995Z,37.39
2023-02-05T13:54:29.110Z,37.36
2023-02-05T13:57:00.003Z,37.39
2023-02-05T13:59:28.587Z,37.51
2023-02-05T14:01:57.814Z,37.26
2023-02-05T14:04:26.620Z,37.42
2023-02-05T14:06:59.391Z,37.48
2023-02-05T14:09:30.722Z,37.49
2023-02-05T14:11:58.826Z,37.53
2023-02-05T14:14:27.752Z,37.38
2023-02-05T14:16:56.360Z,37.26
2023-02-05T14:19:25.654Z,37.38
2023-02-05T14:22:12.631Z,37.43
2023-02-05T14:24:45.398Z,37.38
2023-02-05T14:27:37.060Z,37.31
2023-02-05T14:30:19.920Z,37.33
2023-02-05T14:32:57.045Z,37.17
2023-02-05T14:35:28.664Z,37.21
2023-02-05T14:37:56.571Z,37.27
2023-02-05T14:40:27.658Z,37.25
2023-02-05T14:43:08.522Z,37.23
2023-02-05T14:45:38.664Z,37.28
2023-02-05T14:48:06.253Z,37.27
2023-02-05T14:50:34.105Z,37.37
2023-02-05T14:53:01.902Z,37.27
2023-02-05T14:55:34.696Z,37.27
2023-02-05T14:58:04.230Z,37.05
2023-02-05T15:00:32.985Z,37.27
2023-02-05T15:03:19.956Z,37.22
2023-02-05T15:05:50.146Z,37.43
2023-02-05T15:08:19.022Z,37.26
2023-02-05T15:10:49.399Z,37.15
2023-02-05T15:13:17.315Z,37.34
2023-02-05T15:15:59.814Z,37.39
2023-02-05T15:18:28.028Z,37.43
2023-02-05T15:20:56.293Z,37.33
2023-02-05T15:23:29.766Z,37.42
2023-02-05T15:25:59.770Z,37.38
2023-02-05T15:28:31.841Z,37.49
2023-02-05T15:31:04.244Z,37.25
2023-02-05T15:33:34.342Z,37.47
2023-02-05T15:36:01.878Z,37.28
2023-02-05T15:38:31.777Z,37.53
2023-02-05T15:41:00.712Z,37.24
2023-02-05T15:43:28.408Z,37.32
2023-02-05T15:45:59.433Z,37.37
2023-02-05T15:48:27.242Z,37.32
2023-02-05T15:50:56.287Z,37.36
2023-02-05T15:53:30.365Z,37.43
2023-02-05T15:55:58.359Z,37.42
2023-02-05T15:58:27.470Z,37.30
2023-02-05T16:00:56.490Z,37.34
2023-02-05T16:03:27.627Z,37.13
2023-02-05T16:05:55.251Z,37.41
2023-02-05T16:08:23.376Z,37.41
2023-02-05T16:10:54.304Z,37.32
2023-02-05T16:13:21.987Z,37.37
2023-02-05T16:15:51.922Z,37.19
2023-02-05T16:18:20.921Z,37.43
2023-02-05T16:20:50.105Z,37.28
2023-02-05T16:23:20.092Z,37.33
2023-02-05T16:25:48.215Z,37.44
2023-02-05T16:28:16.945Z,37.32
2023-02-05T16:30:45.295Z,37.26
2023-02-05T16:33:16.821Z,37.38
2023-02-05T16:35:45.900Z,37.38
2023-02-05T16:38:14.657Z,37.33
2023-02-05T16:40:43.093Z,37.37
2023-02-05T16:43:21.138Z,37.35
2023-02-05T16:46:00.170Z,37.30
2023-02-05T16:48:30.078Z,37.46
2023-02-05T16:51:01.214Z,37.34
2023-02-05T16:53:29.543Z,37.35
2023-02-05T16:55:59.185Z,37.26
2023-02-05T16:58:28.005Z,37.30
2023-02-05T17:00:56.115Z,37.27
2023-02-05T17:03:23.831Z,37.28
2023-02-05T17:05:56.953Z,37.36
2023-02-05T17:08:30.662Z,37.24
2023-02-05T17:10:58.666Z,37.38
2023-02-05T17:13:27.193Z,37.29
2023-02-05T17:15:54.971Z,37.37
2023-02-05T17:18:24.015Z,37.40
2023-02-05T17:20:52.024Z,37.36
2023-02-05T17:23:21.099Z,37.30
2023-02-05T17:25:52.501Z,37.40
2023-02-05T17:28:20.654Z,37.42
2023-02-05T17:30:48.463Z,37.36
2023-02-05T17:33:16.868Z,37.39
2023-02-05T17:35:44.782Z,37.37
2023-02-05T17:38:12.341Z,37.28
2023-02-05T17:40:41.294Z,37.34
2023-02-05T17:43:08.875Z,37.39
2023-02-05T17:45:37.653Z,37.39
2023-02-05T17:48:05.727Z,37.30
2023-02-05T17:50:34.788Z,37.41
2023-02-05T17:53:02.825Z,37.34
2023-02-05T17:55:30.636Z,37.35
2023-02-05T17:57:59.868Z,37.19
2023-02-05T18:00:28.415Z,37.43
2023-02-05T18:02:56.019Z,37.35
2023-02-05T18:05:23.792Z,37.41
2023-02-05T18:07:52.008Z,37.38
2023-02-05T18:10:22.470Z,37.27
2023-02-05T18:12:51.022Z,37.42
2023-02-05T18:15:20.265Z,37.40
2023-02-05T18:17:48.277Z,37.34
2023-02-05T18:20:16.191Z,37.20
2023-02-05T18:22:44.013Z,37.36
2023-02-05T18:25:11.746Z,37.37
2023-02-05T18:27:39.381Z,37.31
2023-02-05T18:30:07.557Z,37.33
2023-02-05T18:32:36.436Z,37.27
2023-02-05T18:35:06.096Z,37.28
2023-02-05T18:37:33.681Z,37.18
2023-02-05T18:40:01.499Z,37.40
2023-02-05T18:42:29.242Z,37.23
2023-02-05T18:44:56.963Z,37.35
2023-02-05T18:47:24.772Z,37.27
2023-02-05T18:49:53.041Z,37.26
2023-02-05T18:52:23.115Z,37.37
2023-02-05T18:54:51.094Z,37.41
2023-02-05T18:57:18.739Z,37.24
2023-02-05T18:59:48.370Z,37.38
2023-02-05T19:02:16.162Z,37.26
2023-02-05T19:04:44.506Z,37.29
2023-02-05T19:07:12.203Z,37.38
2023-02-05T19:09:41.381Z,37.33
2023-02-05T19:12:09.224Z,37.38
2023-02-05T19:14:37.144Z,37.43
2023-02-05T19:17:06.284Z,37.38
2023-02-05T19:19:34.231Z,37.26
2023-02-05T19:22:05.352Z,37.35
2023-02-05T19:24:33.091Z,37.36
2023-02-05T19:27:02.222Z,37.18
2023-02-05T19:29:30.550Z,37.34
2023-02-05T19:31:58.809Z,37.33
2023-02-05T19:34:27.715Z,37.20
2023-02-05T19:36:55.407Z,37.31
2023-02-05T19:39:23.016Z,37.27
2023-02-05T19:41:51.833Z,37.32
2023-02-05T19:44:20.889Z,37.22
2023-02-05T19:46:50.557Z,37.20
2023-02-05T19:49:18.409Z,37.32
2023-02-05T19:51:46.578Z,37.22
2023-02-05T19:54:14.972Z,37.33
2023-02-05T19:56:42.664Z,37.23
2023-02-05T19:59:10.210Z,37.27
2023-02-05T20:01:39.677Z,37.15
2023-02-05T20:04:07.877Z,37.15
2023-02-05T20:06:35.826Z,37.23
2023-02-05T20:09:03.576Z,37.14
2023-02-05T20:11:31.245Z,37.27
2023-02-05T20:14:01.177Z,37.14
2023-02-05T20:16:28.854Z,37.29
2023-02-05T20:18:59.341Z,37.28
2023-02-05T20:21:27.114Z,37.28
2023-02-05T20:23:54.746Z,37.25
2023-02-05T20:26:22.729Z,37.09
2023-02-05T20:29:09.772Z,37.14
2023-02-05T20:31:41.541Z,37.24
2023-02-05T20:34:11.470Z,37.13
2023-02-05T20:36:39.481Z,37.24
2023-02-05T20:39:07.826Z,37.18
2023-02-05T20:41:35.473Z,37.21
2023-02-05T20:44:03.193Z,37.11
2023-02-05T20:46:31.363Z,37.23
2023-02-05T20:48:59.640Z,37.11
2023-02-05T20:51:29.569Z,37.19
2023-02-05T20:53:58.088Z,37.11
2023-02-05T20:56:26.348Z,37.18
2023-02-05T20:58:54.547Z,37.09
2023-02-05T21:01:22.473Z,37.23
2023-02-05T21:03:50.406Z,37.08
2023-02-05T21:06:18.248Z,37.22
2023-02-05T21:08:47.603Z,37.30
2023-02-05T21:11:15.496Z,37.10
2023-02-05T21:13:43.217Z,37.14
2023-02-05T21:16:10.949Z,37.20
2023-02-05T21:18:40.274Z,36.98
2023-02-05T21:21:08.363Z,37.15
2023-02-05T21:23:36.476Z,37.09
2023-02-05T21:26:05.820Z,37.14
2023-02-05T21:28:33.650Z,37.15
2023-02-05T21:31:01.984Z,36.98
2023-02-05T21:33:29.746Z,36.99
2023-02-05T21:35:57.386Z,37.04
2023-02-05T21:38:30.664Z,37.10
2023-02-05T21:40:58.267Z,37.00
2023-02-05T21:43:27.299Z,37.00
2023-02-05T21:45:55.059Z,37.09
2023-02-05T21:48:22.997Z,37.10
2023-02-05T21:50:50.749Z,37.13
2023-02-05T21:53:18.343Z,37.15
2023-02-05T21:55:46.014Z,37.13
2023-02-05T21:58:13.640Z,36.99
2023-02-05T22:00:42.770Z,36.95
2023-02-05T22:03:10.400Z,37.06
2023-02-05T22:05:38.092Z,36.96
2023-02-05T22:08:05.831Z,37.09
2023-02-05T22:10:33.845Z,36.90
2023-02-05T22:13:01.666Z,37.02
2023-02-05T22:15:29.358Z,37.00
2023-02-05T22:17:58.358Z,37.02
2023-02-05T22:20:26.052Z,36.96
2023-02-05T22:22:53.895Z,36.86
2023-02-05T22:25:21.858Z,36.97
2023-02-05T22:27:49.602Z,37.02
2023-02-05T22:30:17.549Z,36.94
2023-02-05T22:32:45.274Z,36.82
2023-02-05T22:35:14.332Z,36.92
2023-02-05T22:37:41.958Z,36.95
2023-02-05T22:40:10.339Z,36.82
2023-02-05T22:42:38.252Z,36.91
2023-02-05T22:45:06.212Z,36.92
2023-02-05T22:47:33.820Z,36.75
2023-02-05T22:50:01.536Z,36.73
2023-02-05T22:52:30.660Z,36.68
2023-02-05T22:54:58.214Z,36.89
2023-02-05T22:57:25.868Z,36.96
2023-02-05T22:59:54.266Z,36.84
2023-02-05T23:02:21.924Z,36.83
2023-02-05T23:04:49.778Z,36.87
2023-02-05T23:07:17.561Z,36.86
2023-02-05T23:09:46.678Z,36.64
2023-02-05T23:12:14.238Z,36.73
2023-02-05T23:14:41.785Z,36.84
2023-02-05T23:17:09.658Z,36.76
2023-02-05T23:19:38.501Z,36.68
2023-02-05T23:22:09.625Z,36.63
2023-02-05T23:24:37.902Z,36.69
2023-02-05T23:27:09.160Z,36.61
2023-02-05T23:29:37.635Z,36.68
2023-02-05T23:32:06.492Z,36.49
2023-02-05T23:34:34.251Z,36.55
2023-02-05T23:37:02.099Z,36.73
2023-02-05T23:39:29.697Z,36.62
2023-02-05T23:41:57.450Z,36.68
2023-02-05T23:44:26.562Z,36.52
2023-02-05T23:46:54.192Z,36.59
2023-02-05T23:49:22.075Z,36.58
2023-02-05T23:51:49.889Z,36.49
2023-02-05T23:54:17.533Z,36.53
2023-02-05T23:56:45.167Z,36.52
2023-02-05T23:59:12.967Z,36.55
